Time;durP1;ratioP1;P1;durP2;ratioP2;P2;SDS_P1;SDS_P2;PMS_P1;PMS_P2;Temp;Humidity;BMP_temperature;BMP_pressure;BME280_temperature;BME280_humidity;BME280_pressure;Samples;Min_cycle;Max_cycle;Signal;HPM_P1;HPM_P2
2024/01/29 00:00:45;;;;;;;0.47;0.47;;;;;;;;;;4986784;28;20172;-77
2024/01/29 00:03:10;;;;;;;0.57;0.47;;;;;;;;;;4983844;28;20187;-77
2024/01/29 00:05:35;;;;;;;0.33;0.33;;;;;;;;;;5007838;28;20480;-77
2024/01/29 00:08:01;;;;;;;0.50;0.50;;;;;;;;;;5005763;28;20179;-77
2024/01/29 00:10:26;;;;;;;0.30;0.30;;;;;;;;;;4992505;28;20250;-77
2024/01/29 00:12:52;;;;;;;0.43;0.43;;;;;;;;;;4991869;28;20211;-77
2024/01/29 00:15:17;;;;;;;0.40;0.40;;;;;;;;;;4989961;28;20267;-77
2024/01/29 00:17:43;;;;;;;0.40;0.40;;;;;;;;;;4990093;28;20190;-77
2024/01/29 00:20:08;;;;;;;1.57;0.53;;;;;;;;;;4974005;28;20201;-76
2024/01/29 00:22:33;;;;;;;0.47;0.47;;;;;;;;;;4974027;28;20194;-77
2024/01/29 00:24:58;;;;;;;0.40;0.40;;;;;;;;;;4972933;28;20238;-78
2024/01/29 00:27:24;;;;;;;0.60;0.60;;;;;;;;;;4970712;28;20241;-76
2024/01/29 00:29:49;;;;;;;0.50;0.50;;;;;;;;;;4973702;28;20200;-77
2024/01/29 00:32:14;;;;;;;0.40;0.40;;;;;;;;;;4973716;28;20216;-76
2024/01/29 00:34:39;;;;;;;0.40;0.40;;;;;;;;;;4974027;28;20176;-77
2024/01/29 00:37:05;;;;;;;0.60;0.60;;;;;;;;;;4989273;28;20183;-77
2024/01/29 00:39:30;;;;;;;0.60;0.60;;;;;;;;;;4988881;28;20214;-77
2024/01/29 00:41:55;;;;;;;0.50;0.50;;;;;;;;;;4990037;28;20179;-77
2024/01/29 00:44:20;;;;;;;0.83;0.57;;;;;;;;;;4973163;28;20184;-77
2024/01/29 00:46:46;;;;;;;0.50;0.50;;;;;;;;;;4973631;28;20184;-77
2024/01/29 00:49:11;;;;;;;0.60;0.60;;;;;;;;;;4990254;28;20203;-77
2024/01/29 00:51:36;;;;;;;0.47;0.47;;;;;;;;;;4972825;28;20181;-79
2024/01/29 00:54:02;;;;;;;0.60;0.60;;;;;;;;;;4973531;28;20255;-79
2024/01/29 00:56:27;;;;;;;1.97;1.00;;;;;;;;;;4989871;28;20205;-79
2024/01/29 00:58:52;;;;;;;0.60;0.60;;;;;;;;;;4990328;28;20284;-79
2024/01/29 01:01:18;;;;;;;1.83;0.80;;;;;;;;;;4972770;28;20183;-79
2024/01/29 01:03:43;;;;;;;1.20;1.10;;;;;;;;;;4990670;28;20176;-79
2024/01/29 01:06:09;;;;;;;0.70;0.70;;;;;;;;;;4973369;28;20190;-79
2024/01/29 01:08:34;;;;;;;1.23;0.70;;;;;;;;;;4972664;28;20179;-78
2024/01/29 01:11:00;;;;;;;3.50;0.60;;;;;;;;;;4973212;28;20187;-79
2024/01/29 01:13:25;;;;;;;0.63;0.63;;;;;;;;;;4971893;28;20211;-79
2024/01/29 01:15:50;;;;;;;2.00;0.80;;;;;;;;;;4973011;28;20230;-79
2024/01/29 01:18:15;;;;;;;2.53;0.57;;;;;;;;;;4989558;28;20183;-78
2024/01/29 01:20:40;;;;;;;0.40;0.40;;;;;;;;;;4990335;28;20187;-79
2024/01/29 01:23:06;;;;;;;0.40;0.40;;;;;;;;;;4974777;28;20181;-79
2024/01/29 01:25:31;;;;;;;0.47;0.47;;;;;;;;;;4993520;28;20179;-79
2024/01/29 01:27:56;;;;;;;0.60;0.60;;;;;;;;;;4976918;28;20273;-79
2024/01/29 01:30:22;;;;;;;0.57;0.57;;;;;;;;;;4975867;28;20298;-79
2024/01/29 01:32:47;;;;;;;0.53;0.53;;;;;;;;;;4974405;28;20199;-79
2024/01/29 01:35:13;;;;;;;1.13;0.70;;;;;;;;;;4993488;28;20285;-79
2024/01/29 01:37:38;;;;;;;0.60;0.60;;;;;;;;;;4976924;28;20180;-79
2024/01/29 01:40:04;;;;;;;0.50;0.50;;;;;;;;;;4992342;28;20266;-78
2024/01/29 01:42:29;;;;;;;0.57;0.57;;;;;;;;;;4992610;28;20180;-79
2024/01/29 01:44:55;;;;;;;0.53;0.53;;;;;;;;;;4972970;28;20284;-79
2024/01/29 01:47:20;;;;;;;0.57;0.57;;;;;;;;;;4975689;28;20180;-79
2024/01/29 01:49:46;;;;;;;0.70;0.70;;;;;;;;;;4993731;28;20196;-79
2024/01/29 01:52:11;;;;;;;0.97;0.90;;;;;;;;;;4974561;28;20191;-79
2024/01/29 01:54:36;;;;;;;1.10;0.80;;;;;;;;;;4976539;28;20227;-79
2024/01/29 01:57:02;;;;;;;2.60;0.80;;;;;;;;;;4974703;28;20467;-79
2024/01/29 01:59:29;;;;;;;0.80;0.80;;;;;;;;;;4976143;28;20246;-79
2024/01/29 02:01:55;;;;;;;0.63;0.63;;;;;;;;;;4993519;28;20199;-79
2024/01/29 02:04:20;;;;;;;0.90;0.90;;;;;;;;;;4975765;28;20191;-78
2024/01/29 02:06:46;;;;;;;0.60;0.60;;;;;;;;;;4993008;28;20176;-78
2024/01/29 02:09:12;;;;;;;0.80;0.80;;;;;;;;;;4991408;28;20211;-79
2024/01/29 02:11:37;;;;;;;0.83;0.83;;;;;;;;;;4993156;28;20227;-78
2024/01/29 02:14:02;;;;;;;0.80;0.80;;;;;;;;;;4976070;28;20204;-78
2024/01/29 02:16:27;;;;;;;0.50;0.50;;;;;;;;;;4975671;28;20328;-79
2024/01/29 02:18:53;;;;;;;0.83;0.80;;;;;;;;;;4992202;28;20178;-79
2024/01/29 02:21:18;;;;;;;0.60;0.60;;;;;;;;;;4974065;28;20183;-79
2024/01/29 02:23:46;;;;;;;0.77;0.77;;;;;;;;;;4975353;28;20182;-78
2024/01/29 02:26:12;;;;;;;0.60;0.60;;;;;;;;;;4983044;28;20183;-79
2024/01/29 02:28:37;;;;;;;1.00;1.00;;;;;;;;;;4990231;28;20269;-79
2024/01/29 02:31:03;;;;;;;0.73;0.73;;;;;;;;;;4993298;28;20169;-78
2024/01/29 02:33:29;;;;;;;1.27;0.90;;;;;;;;;;4978490;28;20174;-78
2024/01/29 02:35:55;;;;;;;0.67;0.67;;;;;;;;;;4979336;28;20180;-78
2024/01/29 02:38:20;;;;;;;0.50;0.50;;;;;;;;;;4973176;28;20263;-79
2024/01/29 02:40:45;;;;;;;0.83;0.70;;;;;;;;;;4975360;28;20180;-79
2024/01/29 02:43:10;;;;;;;1.07;1.00;;;;;;;;;;4973603;28;20222;-78
2024/01/29 02:45:35;;;;;;;2.30;1.23;;;;;;;;;;4991968;28;20282;-78
2024/01/29 02:48:01;;;;;;;2.87;0.90;;;;;;;;;;4975594;28;20266;-78
2024/01/29 02:50:26;;;;;;;1.00;0.87;;;;;;;;;;4974160;28;20303;-78
2024/01/29 02:52:52;;;;;;;1.73;1.10;;;;;;;;;;4975931;28;20175;-79
2024/01/29 02:55:17;;;;;;;0.60;0.60;;;;;;;;;;4987402;28;20190;-79
2024/01/29 02:57:42;;;;;;;0.90;0.90;;;;;;;;;;4992764;28;20181;-78
2024/01/29 03:00:07;;;;;;;0.97;0.87;;;;;;;;;;4973226;28;20267;-78
2024/01/29 03:02:33;;;;;;;1.53;0.60;;;;;;;;;;4974660;28;20218;-79
2024/01/29 03:04:58;;;;;;;0.77;0.77;;;;;;;;;;4975279;28;20191;-79
2024/01/29 03:07:23;;;;;;;0.63;0.60;;;;;;;;;;4974572;28;20757;-78
2024/01/29 03:09:48;;;;;;;0.87;0.83;;;;;;;;;;4973747;28;20213;-79
2024/01/29 03:12:13;;;;;;;0.80;0.80;;;;;;;;;;4989255;28;20202;-79
2024/01/29 03:14:39;;;;;;;0.63;0.63;;;;;;;;;;4992709;28;20188;-79
2024/01/29 03:17:04;;;;;;;0.70;0.70;;;;;;;;;;4991667;28;20218;-79
2024/01/29 03:19:29;;;;;;;1.83;0.73;;;;;;;;;;4974106;28;20183;-78
2024/01/29 03:21:54;;;;;;;0.50;0.50;;;;;;;;;;4974458;28;20184;-78
2024/01/29 03:24:20;;;;;;;0.90;0.90;;;;;;;;;;4990814;28;20187;-79
2024/01/29 03:26:45;;;;;;;0.70;0.70;;;;;;;;;;4972788;28;20183;-79
2024/01/29 03:29:10;;;;;;;0.90;0.90;;;;;;;;;;4973468;28;20200;-78
2024/01/29 03:31:36;;;;;;;1.10;1.00;;;;;;;;;;4969096;28;20298;-78
2024/01/29 03:34:02;;;;;;;0.70;0.70;;;;;;;;;;4974175;28;20191;-78
2024/01/29 03:36:27;;;;;;;1.30;1.20;;;;;;;;;;4990584;28;20185;-78
2024/01/29 03:38:52;;;;;;;0.93;0.93;;;;;;;;;;4973070;28;20317;-78
2024/01/29 03:41:17;;;;;;;1.23;0.90;;;;;;;;;;4971738;28;20188;-79
2024/01/29 03:43:43;;;;;;;0.87;0.87;;;;;;;;;;4974527;28;20291;-79
2024/01/29 03:46:08;;;;;;;0.93;0.83;;;;;;;;;;4988435;28;20180;-79
2024/01/29 03:48:33;;;;;;;1.00;1.00;;;;;;;;;;4973321;28;20193;-79
2024/01/29 03:50:58;;;;;;;1.10;1.00;;;;;;;;;;4991394;28;20203;-78
2024/01/29 03:53:23;;;;;;;2.53;0.90;;;;;;;;;;4970742;28;20176;-78
2024/01/29 03:55:49;;;;;;;0.63;0.63;;;;;;;;;;4972877;28;20248;-79
2024/01/29 03:58:14;;;;;;;1.00;0.90;;;;;;;;;;4989494;28;20267;-78
2024/01/29 04:00:39;;;;;;;0.80;0.77;;;;;;;;;;4974341;28;20206;-78
2024/01/29 04:03:05;;;;;;;1.10;1.07;;;;;;;;;;4971967;28;20191;-78
2024/01/29 04:05:31;;;;;;;1.03;0.90;;;;;;;;;;4972972;28;20263;-79
2024/01/29 04:07:56;;;;;;;1.30;1.00;;;;;;;;;;4973716;28;20587;-78
2024/01/29 04:10:21;;;;;;;1.20;0.90;;;;;;;;;;4989115;28;20298;-79
2024/01/29 04:12:46;;;;;;;0.90;0.90;;;;;;;;;;4974354;28;20546;-79
2024/01/29 04:15:12;;;;;;;1.90;1.30;;;;;;;;;;4973486;28;20221;-78
2024/01/29 04:17:37;;;;;;;1.27;1.00;;;;;;;;;;5008895;28;20189;-78
2024/01/29 04:20:05;;;;;;;0.90;0.90;;;;;;;;;;4988625;28;20189;-78
2024/01/29 04:22:32;;;;;;;0.87;0.87;;;;;;;;;;5010070;28;20173;-79
2024/01/29 04:24:57;;;;;;;0.97;0.97;;;;;;;;;;4991922;28;20190;-79
2024/01/29 04:27:23;;;;;;;2.40;1.00;;;;;;;;;;4991954;28;20489;-79
2024/01/29 04:29:48;;;;;;;2.20;0.97;;;;;;;;;;4992896;28;20205;-78
2024/01/29 04:32:13;;;;;;;1.13;1.00;;;;;;;;;;4989501;28;20234;-79
2024/01/29 04:34:38;;;;;;;0.60;0.60;;;;;;;;;;5010662;28;20187;-78
2024/01/29 04:37:04;;;;;;;1.47;1.10;;;;;;;;;;5009423;28;20462;-78
2024/01/29 04:39:29;;;;;;;1.90;0.77;;;;;;;;;;4992476;28;20433;-78
2024/01/29 04:41:54;;;;;;;1.27;0.90;;;;;;;;;;4990937;28;20212;-79
2024/01/29 04:44:19;;;;;;;0.93;0.93;;;;;;;;;;5008742;28;20187;-78
2024/01/29 04:46:44;;;;;;;0.90;0.90;;;;;;;;;;5009856;28;20171;-79
2024/01/29 04:49:10;;;;;;;0.90;0.90;;;;;;;;;;4992365;28;20538;-78
2024/01/29 04:51:35;;;;;;;1.27;1.03;;;;;;;;;;4981787;28;20173;-79
2024/01/29 04:54:00;;;;;;;4.57;1.50;;;;;;;;;;5010086;28;20207;-79
2024/01/29 04:56:25;;;;;;;2.07;1.17;;;;;;;;;;5007670;28;20184;-78
2024/01/29 04:58:51;;;;;;;1.70;1.00;;;;;;;;;;4990457;28;20172;-78
2024/01/29 05:01:16;;;;;;;1.20;1.10;;;;;;;;;;4995299;28;20175;-78
2024/01/29 05:03:41;;;;;;;1.33;1.17;;;;;;;;;;4995776;28;20492;-78
2024/01/29 05:06:07;;;;;;;0.73;0.73;;;;;;;;;;5012742;28;20278;-78
2024/01/29 05:08:32;;;;;;;1.43;0.90;;;;;;;;;;4992499;28;20175;-78
2024/01/29 05:10:57;;;;;;;1.27;1.17;;;;;;;;;;4995457;28;20209;-78
2024/01/29 05:13:22;;;;;;;0.80;0.80;;;;;;;;;;4995275;28;20181;-78
2024/01/29 05:15:47;;;;;;;1.13;1.03;;;;;;;;;;4995656;28;20315;-78
2024/01/29 05:18:13;;;;;;;1.10;1.00;;;;;;;;;;5005933;28;20182;-79
2024/01/29 05:20:38;;;;;;;3.40;1.27;;;;;;;;;;4995867;28;20193;-79
2024/01/29 05:23:03;;;;;;;1.60;1.07;;;;;;;;;;4997366;28;20274;-78
2024/01/29 05:25:28;;;;;;;1.83;1.10;;;;;;;;;;4994038;28;20215;-78
2024/01/29 05:27:54;;;;;;;2.50;1.17;;;;;;;;;;5013170;28;20274;-79
2024/01/29 05:30:19;;;;;;;2.07;1.40;;;;;;;;;;5010397;28;20290;-78
2024/01/29 05:32:44;;;;;;;1.80;1.60;;;;;;;;;;5001866;28;20218;-79
2024/01/29 05:35:10;;;;;;;1.50;1.40;;;;;;;;;;4993200;28;20207;-79
2024/01/29 05:37:35;;;;;;;2.37;1.17;;;;;;;;;;4995950;28;20196;-78
2024/01/29 05:40:00;;;;;;;1.97;1.13;;;;;;;;;;4994770;28;20259;-78
2024/01/29 05:42:26;;;;;;;1.10;0.90;;;;;;;;;;5007159;28;20190;-79
2024/01/29 05:44:51;;;;;;;4.20;2.60;;;;;;;;;;5009562;28;20186;-79
2024/01/29 05:47:16;;;;;;;2.77;1.90;;;;;;;;;;5011187;28;20291;-78
2024/01/29 05:49:42;;;;;;;6.73;3.40;;;;;;;;;;4995540;28;20214;-78
2024/01/29 05:52:07;;;;;;;10.40;4.67;;;;;;;;;;5013650;28;20184;-78
2024/01/29 05:54:32;;;;;;;31.43;5.80;;;;;;;;;;5012865;28;20178;-78
2024/01/29 05:56:57;;;;;;;4.90;3.47;;;;;;;;;;5012272;28;20203;-78
2024/01/29 05:59:23;;;;;;;5.47;3.10;;;;;;;;;;4994840;28;20326;-78
2024/01/29 06:01:48;;;;;;;8.93;3.07;;;;;;;;;;5010892;28;20270;-83
2024/01/29 06:04:13;;;;;;;2.37;1.93;;;;;;;;;;4988296;28;20215;-75
2024/01/29 06:06:39;;;;;;;3.60;2.10;;;;;;;;;;5014166;28;20188;-76
2024/01/29 06:09:09;;;;;;;3.67;2.50;;;;;;;;;;5005629;28;20205;-76
2024/01/29 06:11:35;;;;;;;3.03;1.50;;;;;;;;;;4983723;28;20199;-76
2024/01/29 06:14:00;;;;;;;2.70;1.73;;;;;;;;;;5008103;28;20260;-75
2024/01/29 06:16:25;;;;;;;2.03;1.47;;;;;;;;;;5014190;28;20293;-75
2024/01/29 06:18:51;;;;;;;1.40;1.30;;;;;;;;;;4990447;28;20187;-75
2024/01/29 06:21:16;;;;;;;2.03;1.10;;;;;;;;;;5013388;28;20180;-74
2024/01/29 06:23:42;;;;;;;1.40;1.30;;;;;;;;;;5000839;28;20172;-76
2024/01/29 06:26:07;;;;;;;0.80;0.80;;;;;;;;;;4992671;28;20385;-75
2024/01/29 06:28:32;;;;;;;1.23;1.13;;;;;;;;;;5011423;28;20175;-75
2024/01/29 06:30:57;;;;;;;3.30;1.10;;;;;;;;;;5010782;28;20240;-75
2024/01/29 06:33:23;;;;;;;2.50;1.20;;;;;;;;;;5009930;28;20200;-75
2024/01/29 06:35:48;;;;;;;7.23;1.40;;;;;;;;;;4988721;28;20205;-75
2024/01/29 06:38:13;;;;;;;14.97;2.73;;;;;;;;;;4994870;28;20222;-74
2024/01/29 06:40:38;;;;;;;1.90;1.10;;;;;;;;;;5011325;28;20206;-75
2024/01/29 06:43:03;;;;;;;3.13;2.23;;;;;;;;;;5002429;28;20173;-75
2024/01/29 06:45:30;;;;;;;3.33;2.03;;;;;;;;;;5005998;28;20344;-74
2024/01/29 06:47:56;;;;;;;6.27;3.27;;;;;;;;;;5005889;28;20176;-75
2024/01/29 06:50:21;;;;;;;15.60;4.60;;;;;;;;;;4990397;28;20212;-75
2024/01/29 06:52:46;;;;;;;47.27;6.63;;;;;;;;;;4994785;28;20175;-74
2024/01/29 06:55:12;;;;;;;3.47;1.90;;;;;;;;;;4993683;28;20187;-75
2024/01/29 06:57:37;;;;;;;3.37;2.20;;;;;;;;;;4982614;28;20432;-74
2024/01/29 07:00:03;;;;;;;1.93;1.83;;;;;;;;;;5011212;28;20203;-75
2024/01/29 07:02:29;;;;;;;1.60;1.50;;;;;;;;;;5002838;28;20315;-75
2024/01/29 07:04:54;;;;;;;1.43;1.17;;;;;;;;;;5008967;28;20214;-75
2024/01/29 07:07:19;;;;;;;1.00;1.00;;;;;;;;;;5008363;28;20186;-74
2024/01/29 07:09:44;;;;;;;1.60;1.10;;;;;;;;;;4988306;28;20290;-74
2024/01/29 07:12:10;;;;;;;2.53;1.13;;;;;;;;;;4983078;28;20184;-75
2024/01/29 07:14:35;;;;;;;1.63;1.53;;;;;;;;;;5009264;28;20194;-75
2024/01/29 07:17:00;;;;;;;3.33;1.30;;;;;;;;;;4989099;28;20304;-75
2024/01/29 07:19:27;;;;;;;1.33;1.20;;;;;;;;;;5006309;28;20186;-75
2024/01/29 07:21:53;;;;;;;1.13;1.03;;;;;;;;;;4989892;28;20176;-74
2024/01/29 07:24:18;;;;;;;1.37;1.27;;;;;;;;;;4993016;28;20220;-75
2024/01/29 07:26:43;;;;;;;2.07;1.40;;;;;;;;;;4991996;28;20185;-75
2024/01/29 07:29:09;;;;;;;1.70;1.60;;;;;;;;;;5011102;28;20207;-75
2024/01/29 07:31:34;;;;;;;3.27;1.47;;;;;;;;;;4992214;28;20183;-75
2024/01/29 07:33:59;;;;;;;2.03;1.60;;;;;;;;;;5008537;28;20183;-76
2024/01/29 07:36:26;;;;;;;3.00;1.50;;;;;;;;;;5008116;28;20173;-75
2024/01/29 07:38:51;;;;;;;1.47;1.10;;;;;;;;;;5008942;28;20172;-75
2024/01/29 07:41:16;;;;;;;1.60;1.50;;;;;;;;;;4986348;28;20470;-75
2024/01/29 07:43:41;;;;;;;2.17;1.30;;;;;;;;;;5006369;28;20277;-75
2024/01/29 07:46:10;;;;;;;1.90;1.33;;;;;;;;;;5007796;28;20187;-75
2024/01/29 07:48:35;;;;;;;1.20;0.93;;;;;;;;;;5003926;28;20183;-75
2024/01/29 07:51:00;;;;;;;1.23;1.00;;;;;;;;;;5009329;28;20260;-75
2024/01/29 07:53:25;;;;;;;0.90;0.90;;;;;;;;;;5003987;28;20229;-74
2024/01/29 07:55:51;;;;;;;1.33;1.10;;;;;;;;;;5013490;28;20260;-75
2024/01/29 07:58:16;;;;;;;46.43;5.73;;;;;;;;;;5006809;28;20197;-75
2024/01/29 08:00:42;;;;;;;4.20;1.70;;;;;;;;;;4985585;28;20179;-75
2024/01/29 08:03:07;;;;;;;1.37;1.27;;;;;;;;;;4989033;28;20186;-75
2024/01/29 08:05:33;;;;;;;1.57;1.20;;;;;;;;;;5007053;28;20199;-75
2024/01/29 08:07:58;;;;;;;1.30;1.10;;;;;;;;;;4985160;28;20207;-75
2024/01/29 08:10:23;;;;;;;2.43;1.47;;;;;;;;;;5010324;28;20190;-74
2024/01/29 08:12:48;;;;;;;1.40;1.30;;;;;;;;;;5004826;28;20202;-74
2024/01/29 08:15:14;;;;;;;1.63;1.50;;;;;;;;;;4998169;28;20239;-74
2024/01/29 08:17:40;;;;;;;1.93;1.50;;;;;;;;;;5007518;28;20191;-74
2024/01/29 08:20:05;;;;;;;3.60;1.40;;;;;;;;;;4990650;28;20178;-75
2024/01/29 08:22:30;;;;;;;1.60;1.10;;;;;;;;;;4998028;28;20233;-73
2024/01/29 08:24:56;;;;;;;1.53;1.40;;;;;;;;;;4987844;28;20177;-75
2024/01/29 08:27:21;;;;;;;2.07;1.40;;;;;;;;;;5007727;28;20175;-74
2024/01/29 08:29:46;;;;;;;1.80;1.70;;;;;;;;;;5001905;28;20205;-74
2024/01/29 08:32:11;;;;;;;2.07;1.57;;;;;;;;;;5006604;28;20183;-75
2024/01/29 08:34:36;;;;;;;1.43;1.33;;;;;;;;;;5011182;28;20183;-74
2024/01/29 08:37:02;;;;;;;1.37;1.27;;;;;;;;;;5015669;28;20254;-74
2024/01/29 08:39:27;;;;;;;2.13;1.23;;;;;;;;;;4995651;28;20233;-74
2024/01/29 08:41:52;;;;;;;1.70;1.60;;;;;;;;;;4993628;28;20171;-74
2024/01/29 08:44:37;;;;;;;1.60;1.50;;;;;;;;;;5015722;28;20195;-74
2024/01/29 08:47:03;;;;;;;1.50;1.40;;;;;;;;;;5015083;28;20273;-75
2024/01/29 08:49:28;;;;;;;1.93;1.70;;;;;;;;;;4999824;28;20249;-75
2024/01/29 08:51:53;;;;;;;3.23;2.10;;;;;;;;;;4999607;28;20226;-74
2024/01/29 08:54:18;;;;;;;1.93;1.37;;;;;;;;;;5000020;28;20250;-74
2024/01/29 08:56:43;;;;;;;1.83;1.60;;;;;;;;;;5015518;28;20184;-75
2024/01/29 08:59:08;;;;;;;1.97;1.60;;;;;;;;;;4997907;28;20180;-74
2024/01/29 09:01:34;;;;;;;3.97;1.90;;;;;;;;;;5015328;28;20194;-74
2024/01/29 09:03:59;;;;;;;4.67;2.07;;;;;;;;;;5012369;28;20212;-75
2024/01/29 09:06:24;;;;;;;2.03;1.83;;;;;;;;;;5013618;28;20175;-74
2024/01/29 09:08:50;;;;;;;2.10;1.70;;;;;;;;;;5016085;28;20175;-74
2024/01/29 09:11:16;;;;;;;1.63;1.40;;;;;;;;;;4994117;28;20182;-74
2024/01/29 09:13:41;;;;;;;1.90;1.80;;;;;;;;;;4987953;28;20172;-74
2024/01/29 09:16:06;;;;;;;2.07;1.57;;;;;;;;;;4995679;28;20227;-74
2024/01/29 09:18:31;;;;;;;2.10;1.70;;;;;;;;;;5012412;28;20185;-75
2024/01/29 09:20:57;;;;;;;1.73;1.63;;;;;;;;;;5011880;28;20218;-75
2024/01/29 09:23:22;;;;;;;1.73;1.63;;;;;;;;;;5015800;28;20184;-75
2024/01/29 09:25:47;;;;;;;2.70;1.60;;;;;;;;;;5012141;28;20171;-74
2024/01/29 09:28:12;;;;;;;2.97;1.83;;;;;;;;;;5014289;28;20172;-75
2024/01/29 09:30:37;;;;;;;2.20;2.00;;;;;;;;;;5013469;28;20200;-74
2024/01/29 09:33:03;;;;;;;1.60;1.50;;;;;;;;;;4999141;28;20229;-75
2024/01/29 09:35:28;;;;;;;2.00;1.80;;;;;;;;;;5008029;28;20184;-75
2024/01/29 09:37:53;;;;;;;2.43;1.80;;;;;;;;;;5013951;28;20251;-74
2024/01/29 09:40:19;;;;;;;2.37;1.93;;;;;;;;;;5004525;28;20179;-73
2024/01/29 09:42:48;;;;;;;1.57;1.47;;;;;;;;;;4989444;28;20235;-74
2024/01/29 09:45:18;;;;;;;2.97;2.10;;;;;;;;;;5011627;28;20263;-74
2024/01/29 09:47:43;;;;;;;3.47;1.77;;;;;;;;;;5000082;28;20212;-75
2024/01/29 09:50:09;;;;;;;3.10;1.90;;;;;;;;;;5006066;28;20218;-74
2024/01/29 09:52:37;;;;;;;2.23;1.70;;;;;;;;;;4993752;28;20248;-75
2024/01/29 09:55:03;;;;;;;5.17;2.63;;;;;;;;;;5006210;28;20176;-75
2024/01/29 09:57:28;;;;;;;2.80;2.20;;;;;;;;;;4993511;28;20230;-74
2024/01/29 09:59:53;;;;;;;1.80;1.70;;;;;;;;;;5003727;28;20177;-74
2024/01/29 10:02:19;;;;;;;4.97;3.03;;;;;;;;;;4995928;28;20187;-74
2024/01/29 10:04:45;;;;;;;2.87;2.17;;;;;;;;;;5005869;28;20189;-74
2024/01/29 10:07:10;;;;;;;3.33;1.90;;;;;;;;;;5004997;28;20215;-74
2024/01/29 10:09:36;;;;;;;1.90;1.60;;;;;;;;;;5004502;28;20294;-74
2024/01/29 10:12:01;;;;;;;2.87;1.83;;;;;;;;;;5011124;28;20181;-74
2024/01/29 10:14:27;;;;;;;4.73;1.80;;;;;;;;;;5012698;28;20194;-74
2024/01/29 10:16:52;;;;;;;3.57;2.20;;;;;;;;;;5008674;28;20227;-75
2024/01/29 10:19:18;;;;;;;1.83;1.70;;;;;;;;;;4995440;28;20186;-75
2024/01/29 10:21:43;;;;;;;2.43;2.23;;;;;;;;;;5008383;28;20306;-74
2024/01/29 10:24:15;;;;;;;2.03;1.70;;;;;;;;;;4993370;28;20268;-74
2024/01/29 10:26:44;;;;;;;5.17;1.77;;;;;;;;;;5003038;28;20181;-74
2024/01/29 10:29:10;;;;;;;2.53;2.07;;;;;;;;;;4989451;28;20178;-74
2024/01/29 10:31:36;;;;;;;3.17;2.10;;;;;;;;;;5004275;28;20179;-74
2024/01/29 10:34:02;;;;;;;2.43;1.90;;;;;;;;;;4990642;28;20170;-74
2024/01/29 10:36:27;;;;;;;2.10;1.90;;;;;;;;;;5006389;28;20177;-74
2024/01/29 10:38:53;;;;;;;2.27;2.03;;;;;;;;;;5011197;28;20177;-74
2024/01/29 10:41:20;;;;;;;3.07;1.87;;;;;;;;;;5010218;28;20173;-74
2024/01/29 10:43:49;;;;;;;2.30;1.40;;;;;;;;;;5011891;28;20300;-75
2024/01/29 10:46:17;;;;;;;2.17;1.67;;;;;;;;;;5010409;28;20177;-74
2024/01/29 10:48:43;;;;;;;3.10;1.93;;;;;;;;;;5003458;28;20178;-75
2024/01/29 10:51:08;;;;;;;3.00;2.07;;;;;;;;;;5006575;28;20213;-75
2024/01/29 10:53:34;;;;;;;2.00;1.77;;;;;;;;;;5003130;28;20178;-74
2024/01/29 10:56:00;;;;;;;1.77;1.60;;;;;;;;;;5002623;28;20179;-75
2024/01/29 10:58:25;;;;;;;11.10;2.17;;;;;;;;;;4992505;28;20277;-75
2024/01/29 11:00:51;;;;;;;4.60;2.00;;;;;;;;;;4994622;28;20198;-75
2024/01/29 11:03:17;;;;;;;1.97;1.67;;;;;;;;;;5008549;28;20183;-74
2024/01/29 11:05:46;;;;;;;4.20;1.90;;;;;;;;;;4994408;28;20176;-74
2024/01/29 11:08:16;;;;;;;3.07;2.00;;;;;;;;;;5003907;28;20187;-74
2024/01/29 11:10:41;;;;;;;1.97;1.70;;;;;;;;;;5001326;28;20226;-75
2024/01/29 11:13:08;;;;;;;1.73;1.63;;;;;;;;;;5011329;28;20281;-75
2024/01/29 11:15:33;;;;;;;2.00;1.80;;;;;;;;;;4991427;28;20317;-75
2024/01/29 11:17:59;;;;;;;2.73;2.10;;;;;;;;;;4994221;28;20325;-75
2024/01/29 11:20:24;;;;;;;3.73;1.80;;;;;;;;;;4997627;28;20189;-75
2024/01/29 11:22:53;;;;;;;1.90;1.70;;;;;;;;;;4993078;28;20183;-75
2024/01/29 11:25:18;;;;;;;2.27;1.57;;;;;;;;;;4991861;28;20197;-75
2024/01/29 11:27:44;;;;;;;3.57;1.60;;;;;;;;;;4991554;28;20190;-74
2024/01/29 11:30:14;;;;;;;2.27;2.07;;;;;;;;;;5010779;28;20210;-74
2024/01/29 11:32:40;;;;;;;2.07;1.87;;;;;;;;;;5006365;28;20187;-75
2024/01/29 11:35:17;;;;;;;7.93;2.53;;;;;;;;;;4989622;28;20191;-75
2024/01/29 11:37:42;;;;;;;3.87;1.80;;;;;;;;;;5003757;28;20187;-75
2024/01/29 11:40:26;;;;;;;2.87;1.80;;;;;;;;;;4993276;28;20187;-75
2024/01/29 11:42:53;;;;;;;2.37;1.60;;;;;;;;;;5007212;28;20174;-75
2024/01/29 11:45:19;;;;;;;8.03;2.53;;;;;;;;;;5005929;28;20188;-75
2024/01/29 11:47:44;;;;;;;4.07;1.97;;;;;;;;;;4982753;28;20416;-74
2024/01/29 11:50:09;;;;;;;2.63;2.07;;;;;;;;;;5003515;28;20286;-75
2024/01/29 11:52:34;;;;;;;2.57;1.97;;;;;;;;;;5002614;28;20206;-75
2024/01/29 11:55:00;;;;;;;2.67;1.77;;;;;;;;;;4993749;28;20176;-75
2024/01/29 11:57:25;;;;;;;2.20;2.00;;;;;;;;;;5004659;28;20206;-74
2024/01/29 11:59:50;;;;;;;39.30;6.60;;;;;;;;;;4986891;28;20177;-74
2024/01/29 12:02:15;;;;;;;12.17;3.23;;;;;;;;;;5007487;28;20182;-74
2024/01/29 12:04:41;;;;;;;2.00;1.67;;;;;;;;;;4983598;28;20176;-76
2024/01/29 12:07:06;;;;;;;2.13;1.73;;;;;;;;;;5001290;28;20312;-75
2024/01/29 12:09:33;;;;;;;4.13;1.70;;;;;;;;;;4998854;28;20239;-74
2024/01/29 12:11:58;;;;;;;7.07;1.67;;;;;;;;;;5007645;28;20243;-75
2024/01/29 12:14:23;;;;;;;1.60;1.50;;;;;;;;;;4993438;28;20196;-75
2024/01/29 12:16:48;;;;;;;2.77;1.30;;;;;;;;;;4990292;28;20232;-74
2024/01/29 12:19:14;;;;;;;1.70;1.40;;;;;;;;;;5007463;28;20172;-75
2024/01/29 12:21:41;;;;;;;2.17;1.40;;;;;;;;;;5008678;28;20212;-75
2024/01/29 12:24:08;;;;;;;4.73;2.13;;;;;;;;;;5005716;28;20168;-76
2024/01/29 12:26:34;;;;;;;3.33;2.27;;;;;;;;;;4993159;28;20177;-75
2024/01/29 12:29:00;;;;;;;2.23;1.80;;;;;;;;;;4990664;28;20183;-75
2024/01/29 12:31:25;;;;;;;2.73;1.87;;;;;;;;;;4987839;28;20173;-75
2024/01/29 12:33:51;;;;;;;2.37;2.10;;;;;;;;;;5005308;28;20169;-75
2024/01/29 12:36:17;;;;;;;3.20;1.63;;;;;;;;;;5003803;28;20222;-75
2024/01/29 12:38:58;;;;;;;1.73;1.60;;;;;;;;;;4992286;28;20184;-74
2024/01/29 12:41:24;;;;;;;2.07;1.90;;;;;;;;;;4987126;28;20175;-75
2024/01/29 12:43:52;;;;;;;2.70;2.00;;;;;;;;;;5005229;28;20179;-75
2024/01/29 12:46:18;;;;;;;3.80;2.27;;;;;;;;;;4993341;28;20206;-75
2024/01/29 12:48:43;;;;;;;1.90;1.80;;;;;;;;;;5008752;28;20255;-75
2024/01/29 12:51:12;;;;;;;3.37;1.70;;;;;;;;;;5010450;28;20262;-75
2024/01/29 12:53:37;;;;;;;1.70;1.60;;;;;;;;;;5002258;28;20222;-74
2024/01/29 12:56:03;;;;;;;2.47;1.73;;;;;;;;;;5009636;28;20173;-75
2024/01/29 12:58:28;;;;;;;2.10;1.80;;;;;;;;;;4988114;28;20199;-74
2024/01/29 13:00:53;;;;;;;2.23;1.70;;;;;;;;;;5000296;28;20185;-74
2024/01/29 13:03:19;;;;;;;3.93;2.17;;;;;;;;;;5009272;28;20235;-75
2024/01/29 13:05:47;;;;;;;8.30;2.37;;;;;;;;;;4982833;28;20180;-74
2024/01/29 13:08:12;;;;;;;3.60;2.10;;;;;;;;;;5003786;28;20488;-75
2024/01/29 13:10:38;;;;;;;2.37;1.80;;;;;;;;;;4985149;28;20193;-74
2024/01/29 13:13:04;;;;;;;2.37;1.80;;;;;;;;;;4990871;28;20172;-75
2024/01/29 13:15:30;;;;;;;2.10;1.90;;;;;;;;;;5005822;28;20271;-74
2024/01/29 13:17:55;;;;;;;2.00;1.90;;;;;;;;;;5004040;28;20172;-75
2024/01/29 13:20:21;;;;;;;2.13;1.90;;;;;;;;;;5012798;28;20187;-74
2024/01/29 13:22:47;;;;;;;2.30;1.80;;;;;;;;;;5003238;28;20273;-74
2024/01/29 13:25:14;;;;;;;2.47;1.93;;;;;;;;;;5013377;28;20244;-74
2024/01/29 13:27:39;;;;;;;5.30;1.90;;;;;;;;;;5008944;28;20226;-74
2024/01/29 13:30:05;;;;;;;2.27;1.80;;;;;;;;;;5007498;28;20193;-75
2024/01/29 13:32:30;;;;;;;2.23;1.77;;;;;;;;;;5010003;28;20187;-75
2024/01/29 13:34:55;;;;;;;1.80;1.70;;;;;;;;;;5013928;28;20208;-75
2024/01/29 13:37:20;;;;;;;3.07;1.90;;;;;;;;;;5011233;28;20172;-75
2024/01/29 13:39:46;;;;;;;2.73;1.60;;;;;;;;;;4994449;28;20213;-75
2024/01/29 13:42:11;;;;;;;2.00;1.70;;;;;;;;;;5011078;28;20241;-75
2024/01/29 13:44:37;;;;;;;8.87;2.60;;;;;;;;;;5012144;28;20186;-75
2024/01/29 13:47:03;;;;;;;1.90;1.80;;;;;;;;;;5013268;28;20239;-74
2024/01/29 13:49:28;;;;;;;12.03;2.53;;;;;;;;;;5009538;28;20210;-74
2024/01/29 13:51:54;;;;;;;3.67;1.90;;;;;;;;;;5011815;28;20249;-78
2024/01/29 13:54:19;;;;;;;2.00;1.80;;;;;;;;;;5011857;28;20184;-76
2024/01/29 13:56:44;;;;;;;2.00;1.80;;;;;;;;;;4994062;28;20231;-76
2024/01/29 13:59:09;;;;;;;3.10;1.90;;;;;;;;;;4989171;28;20186;-77
2024/01/29 14:01:34;;;;;;;2.33;1.63;;;;;;;;;;5005410;28;20183;-76
2024/01/29 14:04:00;;;;;;;12.97;2.70;;;;;;;;;;5004020;28;20210;-76
2024/01/29 14:06:25;;;;;;;5.10;2.70;;;;;;;;;;4992677;28;20182;-76
2024/01/29 14:08:50;;;;;;;1.90;1.70;;;;;;;;;;4990882;28;20183;-76
2024/01/29 14:11:15;;;;;;;1.60;1.50;;;;;;;;;;4994286;28;20209;-76
2024/01/29 14:13:42;;;;;;;3.93;2.10;;;;;;;;;;4997943;28;20186;-75
2024/01/29 14:16:07;;;;;;;1.77;1.67;;;;;;;;;;4996380;28;20295;-75
2024/01/29 14:18:34;;;;;;;2.53;2.33;;;;;;;;;;4996788;28;20216;-75
2024/01/29 14:20:59;;;;;;;3.10;2.10;;;;;;;;;;5016956;28;20184;-76
2024/01/29 14:23:24;;;;;;;2.90;1.97;;;;;;;;;;5007266;28;20178;-75
2024/01/29 14:25:51;;;;;;;2.07;1.90;;;;;;;;;;5006859;28;20255;-74
2024/01/29 14:28:16;;;;;;;2.17;1.97;;;;;;;;;;4986144;28;20220;-76
2024/01/29 14:30:43;;;;;;;2.87;2.27;;;;;;;;;;4992099;28;20219;-75
2024/01/29 14:33:08;;;;;;;5.73;2.10;;;;;;;;;;4993413;28;20172;-75